createdAt,value
2018-04-16T00:00:25.021Z,81.80
2018-04-16T00:02:52.588Z,81.80
2018-04-16T00:05:20.754Z,81.70
2018-04-16T00:07:48.223Z,82.10
2018-04-16T00:10:16.454Z,82.10
2018-04-16T00:12:43.928Z,82.00
2018-04-16T00:15:11.402Z,82.00
2018-04-16T00:17:39.635Z,82.50
2018-04-16T00:20:07.106Z,82.00
2018-04-16T00:22:34.584Z,82.70
2018-04-16T00:25:02.835Z,82.50
2018-04-16T00:27:30.303Z,82.50
2018-04-16T00:29:57.782Z,82.50
2018-04-16T00:32:30.965Z,82.80
2018-04-16T00:35:04.236Z,83.30
2018-04-16T00:37:37.500Z,83.00
2018-04-16T00:40:10.728Z,83.10
2018-04-16T00:42:44.003Z,83.70
2018-04-16T00:45:17.311Z,83.40
2018-04-16T00:47:50.567Z,84.10
2018-04-16T00:50:23.759Z,83.70
2018-04-16T00:52:56.981Z,83.50
2018-04-16T00:55:30.280Z,84.00
2018-04-16T01:01:03.175Z,83.90
2018-04-16T01:03:36.331Z,84.80
2018-04-16T01:06:09.444Z,85.00
2018-04-16T01:08:42.650Z,85.30
2018-04-16T01:11:15.948Z,85.00
2018-04-16T01:13:49.101Z,85.10
2018-04-16T01:16:22.271Z,84.90
2018-04-16T01:18:56.323Z,85.10
2018-04-16T01:21:29.608Z,85.10
2018-04-16T01:24:02.828Z,85.10
2018-04-16T01:26:35.923Z,85.50
2018-04-16T01:29:09.106Z,85.70
2018-04-16T01:31:42.384Z,85.50
2018-04-16T01:34:15.443Z,85.40
2018-04-16T01:36:48.691Z,85.80
2018-04-16T01:39:21.929Z,84.90
2018-04-16T01:41:55.270Z,85.60
2018-04-16T01:44:28.536Z,84.60
2018-04-16T01:47:01.596Z,84.80
2018-04-16T01:49:34.843Z,84.70
2018-04-16T01:52:08.124Z,84.90
2018-04-16T01:54:41.428Z,84.70
2018-04-16T01:57:14.568Z,84.70
2018-04-16T01:59:47.780Z,84.70
2018-04-16T02:02:20.978Z,84.40
2018-04-16T02:04:54.062Z,84.30
2018-04-16T02:07:27.356Z,84.50
2018-04-16T02:10:00.780Z,84.40
2018-04-16T02:12:34.063Z,84.20
2018-04-16T02:15:07.336Z,84.70
2018-04-16T02:17:40.628Z,84.30
2018-04-16T02:20:13.976Z,84.50
2018-04-16T02:22:47.935Z,84.40
2018-04-16T02:25:21.000Z,84.40
2018-04-16T02:27:54.123Z,84.70
2018-04-16T02:30:27.313Z,85.40
2018-04-16T02:33:00.384Z,84.50
2018-04-16T02:35:33.573Z,84.80
2018-04-16T02:38:06.887Z,84.60
2018-04-16T02:40:40.175Z,84.70
2018-04-16T02:43:13.490Z,84.70
2018-04-16T02:45:46.759Z,85.00
2018-04-16T02:48:19.947Z,83.80
2018-04-16T02:50:53.251Z,84.10
2018-04-16T02:53:26.372Z,84.20
2018-04-16T02:55:59.628Z,84.60
2018-04-16T02:58:32.898Z,84.40
2018-04-16T03:01:06.071Z,84.00
2018-04-16T03:03:39.177Z,84.00
2018-04-16T03:06:12.375Z,84.00
2018-04-16T03:08:45.620Z,83.80
2018-04-16T03:11:18.872Z,83.70
2018-04-16T03:13:52.199Z,83.90
2018-04-16T03:16:25.487Z,83.90
2018-04-16T03:18:58.664Z,84.40
2018-04-16T03:21:31.994Z,84.00
2018-04-16T03:24:05.875Z,83.30
2018-04-16T03:26:39.005Z,83.30
2018-04-16T03:32:14.016Z,83.00
2018-04-16T03:34:47.308Z,83.80
2018-04-16T03:37:20.579Z,83.90
2018-04-16T03:39:53.968Z,84.00
2018-04-16T03:42:27.059Z,83.90
2018-04-16T03:45:00.130Z,84.20
2018-04-16T03:47:33.367Z,84.00
2018-04-16T03:50:06.468Z,84.80
2018-04-16T03:52:39.524Z,84.90
2018-04-16T03:58:15.603Z,85.40
2018-04-16T04:00:43.080Z,86.00
2018-04-16T04:03:10.555Z,86.60
2018-04-16T04:05:38.876Z,87.40
2018-04-16T04:08:06.383Z,87.00
2018-04-16T04:10:33.863Z,87.40
2018-04-16T04:13:02.108Z,88.20
2018-04-16T04:15:29.587Z,88.20
2018-04-16T04:17:57.843Z,88.70
2018-04-16T04:20:25.336Z,88.60
2018-04-16T04:23:04.690Z,88.80
2018-04-16T04:25:44.082Z,88.70
2018-04-16T04:28:24.308Z,89.10
2018-04-16T04:30:51.889Z,89.00
2018-04-16T04:33:19.447Z,88.60
2018-04-16T04:35:46.929Z,89.00
2018-04-16T04:38:14.400Z,89.40
2018-04-16T04:40:41.868Z,89.60
2018-04-16T04:43:09.379Z,89.80
2018-04-16T04:45:36.990Z,89.70
2018-04-16T04:48:04.459Z,89.90
2018-04-16T04:50:31.970Z,90.20
2018-04-16T04:53:00.234Z,90.20
2018-04-16T04:55:27.688Z,90.20
2018-04-16T04:57:55.248Z,90.30
2018-04-16T05:00:22.716Z,90.40
2018-04-16T05:02:50.952Z,90.50
2018-04-16T05:05:18.416Z,90.40
2018-04-16T05:07:45.883Z,90.60
2018-04-16T05:10:14.133Z,90.90
2018-04-16T05:12:41.603Z,90.80
2018-04-16T05:15:09.071Z,90.60
2018-04-16T05:17:36.543Z,90.40
2018-04-16T05:20:04.779Z,90.40
2018-04-16T05:22:32.257Z,90.40
2018-04-16T05:24:59.815Z,90.50
2018-04-16T05:27:27.292Z,90.50
2018-04-16T05:29:55.524Z,90.60
2018-04-16T05:32:23.008Z,90.60
2018-04-16T05:34:50.479Z,90.70
2018-04-16T05:37:18.726Z,90.70
2018-04-16T05:39:46.200Z,90.60
2018-04-16T05:42:13.676Z,90.80
2018-04-16T05:44:41.944Z,91.10
2018-04-16T05:47:10.191Z,91.10
2018-04-16T05:49:37.667Z,91.10
2018-04-16T05:52:05.144Z,91.00
2018-04-16T05:54:33.454Z,90.90
2018-04-16T05:57:01.009Z,90.90
2018-04-16T05:59:28.476Z,91.00
2018-04-16T06:01:56.027Z,91.20
2018-04-16T06:04:23.503Z,91.20
2018-04-16T06:06:50.992Z,91.40
2018-04-16T06:09:18.471Z,91.70
2018-04-16T06:11:45.959Z,92.10
2018-04-16T06:14:13.440Z,92.10
2018-04-16T06:16:40.923Z,92.20
2018-04-16T06:19:09.208Z,92.50
2018-04-16T06:21:37.483Z,92.50
2018-04-16T06:24:05.715Z,92.50
2018-04-16T06:26:33.190Z,92.50
2018-04-16T06:29:00.668Z,92.80
2018-04-16T06:31:28.899Z,92.70
2018-04-16T06:33:56.493Z,92.70
2018-04-16T06:36:24.800Z,92.90
2018-04-16T06:38:52.597Z,92.90
2018-04-16T06:41:20.064Z,93.20
2018-04-16T06:43:47.537Z,93.40
2018-04-16T06:46:15.100Z,93.70
2018-04-16T06:48:43.020Z,93.90
2018-04-16T06:51:10.500Z,93.70
2018-04-16T06:53:37.966Z,93.50
2018-04-16T06:56:05.434Z,93.70
2018-04-16T06:58:32.907Z,93.70
2018-04-16T07:01:01.229Z,93.60
2018-04-16T07:03:28.715Z,93.60
2018-04-16T07:05:56.203Z,93.30
2018-04-16T07:08:24.604Z,93.30
2018-04-16T07:10:52.067Z,93.30
2018-04-16T07:13:19.584Z,93.20
2018-04-16T07:15:47.101Z,93.20
2018-04-16T07:18:14.570Z,93.60
2018-04-16T07:20:42.051Z,93.50
2018-04-16T07:23:09.538Z,93.90
2018-04-16T07:25:37.044Z,94.40
2018-04-16T07:28:04.622Z,94.20
2018-04-16T07:30:32.099Z,94.70
2018-04-16T07:33:00.359Z,94.40
2018-04-16T07:35:27.845Z,94.30
2018-04-16T07:37:55.316Z,94.90
2018-04-16T07:40:22.807Z,94.70
2018-04-16T07:42:50.310Z,94.90
2018-04-16T07:45:17.799Z,95.20
2018-04-16T07:47:45.285Z,95.20
2018-04-16T07:50:12.814Z,94.90
2018-04-16T07:52:40.308Z,95.10
2018-04-16T07:55:07.876Z,95.10
2018-04-16T07:57:36.143Z,95.30
2018-04-16T08:00:03.634Z,95.20
2018-04-16T08:02:31.106Z,95.30
2018-04-16T08:04:58.631Z,95.60
2018-04-16T08:07:26.883Z,95.40
2018-04-16T08:09:54.559Z,95.40
2018-04-16T08:12:22.028Z,95.30
2018-04-16T08:14:50.288Z,95.20
2018-04-16T08:17:18.576Z,95.30
2018-04-16T08:19:46.075Z,95.10
2018-04-16T08:22:13.604Z,95.00
2018-04-16T08:24:41.037Z,94.60
2018-04-16T08:27:08.626Z,94.80
2018-04-16T08:29:36.151Z,94.90
2018-04-16T08:32:03.631Z,95.30
2018-04-16T08:34:31.883Z,94.80
2018-04-16T08:36:59.363Z,94.70
2018-04-16T08:39:27.617Z,94.80
2018-04-16T08:41:55.178Z,94.80
2018-04-16T08:44:22.635Z,95.20
2018-04-16T08:46:50.144Z,95.00
2018-04-16T08:49:17.651Z,95.10
2018-04-16T08:51:45.121Z,94.80
2018-04-16T08:54:13.351Z,94.90
2018-04-16T08:56:40.841Z,95.30
2018-04-16T08:59:08.300Z,95.20
2018-04-16T09:01:35.773Z,95.20
2018-04-16T09:04:04.013Z,94.70
2018-04-16T09:06:31.491Z,94.70
2018-04-16T09:08:58.967Z,94.70
2018-04-16T09:11:27.214Z,94.70
2018-04-16T09:13:54.689Z,94.70
2018-04-16T09:16:22.923Z,94.50
2018-04-16T09:18:50.395Z,94.50
2018-04-16T09:21:17.867Z,94.60
2018-04-16T09:23:45.427Z,94.70
2018-04-16T09:26:12.943Z,94.90
2018-04-16T09:28:40.439Z,94.40
2018-04-16T09:31:07.965Z,94.30
2018-04-16T09:33:35.443Z,94.50
2018-04-16T09:36:02.931Z,94.70
2018-04-16T09:38:31.180Z,94.60
2018-04-16T09:40:58.660Z,94.50
2018-04-16T09:43:26.912Z,94.30
2018-04-16T09:45:54.391Z,94.20
2018-04-16T09:48:22.619Z,93.60
2018-04-16T09:50:50.104Z,93.60
2018-04-16T09:53:17.571Z,93.80
2018-04-16T09:55:45.092Z,94.20
2018-04-16T09:58:12.563Z,93.80
2018-04-16T10:00:45.868Z,93.80
2018-04-16T10:03:18.130Z,93.90
2018-04-16T10:05:45.619Z,94.10
2018-04-16T10:08:13.868Z,94.30
2018-04-16T10:10:41.354Z,94.20
2018-04-16T10:13:09.596Z,94.40
2018-04-16T10:15:37.169Z,94.40
2018-04-16T10:18:06.195Z,94.50
2018-04-16T10:20:33.639Z,94.50
2018-04-16T10:23:01.123Z,94.50
2018-04-16T10:25:28.680Z,94.50
2018-04-16T10:27:56.167Z,94.00
2018-04-16T10:30:23.646Z,94.10
2018-04-16T10:32:51.924Z,94.10
2018-04-16T10:35:19.408Z,94.00
2018-04-16T10:37:46.908Z,93.70
2018-04-16T10:40:14.372Z,93.40
2018-04-16T10:42:41.954Z,93.70
2018-04-16T10:45:10.187Z,93.20
2018-04-16T10:47:37.687Z,93.10
2018-04-16T10:50:05.178Z,93.10
2018-04-16T10:52:32.653Z,92.50
2018-04-16T10:55:00.155Z,92.50
2018-04-16T10:57:27.618Z,93.00
2018-04-16T10:59:55.079Z,92.80
2018-04-16T11:02:22.676Z,92.20
2018-04-16T11:04:50.138Z,91.60
2018-04-16T11:07:17.643Z,90.80
2018-04-16T11:09:45.111Z,91.30
2018-04-16T11:12:13.369Z,90.50
2018-04-16T11:14:40.837Z,90.50
2018-04-16T11:17:08.316Z,90.70
2018-04-16T11:19:36.559Z,89.40
2018-04-16T11:22:04.117Z,89.20
2018-04-16T11:24:31.676Z,88.60
2018-04-16T11:26:59.964Z,88.00
2018-04-16T11:29:27.424Z,87.90
2018-04-16T11:31:55.672Z,85.50
2018-04-16T11:34:23.236Z,85.40
2018-04-16T11:36:52.223Z,86.30
2018-04-16T11:39:19.707Z,86.20
2018-04-16T11:41:48.066Z,88.00
2018-04-16T11:44:15.591Z,87.80
2018-04-16T11:46:43.048Z,84.50
2018-04-16T11:49:10.518Z,83.80
2018-04-16T11:51:38.256Z,82.40
2018-04-16T11:54:05.727Z,82.50
2018-04-16T11:56:33.187Z,82.50
2018-04-16T11:59:00.659Z,81.90
2018-04-16T12:01:28.126Z,82.00
2018-04-16T12:03:55.592Z,81.70
2018-04-16T12:06:23.151Z,80.30
2018-04-16T12:08:50.628Z,80.30
2018-04-16T12:11:18.855Z,77.60
2018-04-16T12:13:46.442Z,77.30
2018-04-16T12:16:13.911Z,78.50
2018-04-16T12:18:42.135Z,79.70
2018-04-16T12:21:09.607Z,79.50
2018-04-16T12:23:37.081Z,79.40
2018-04-16T12:26:04.559Z,79.50
2018-04-16T12:28:32.787Z,81.20
2018-04-16T12:31:00.263Z,81.10
2018-04-16T12:33:27.885Z,82.30
2018-04-16T12:35:55.355Z,84.40
2018-04-16T12:38:22.864Z,84.10
2018-04-16T12:40:51.104Z,83.30
2018-04-16T12:43:18.577Z,83.30
2018-04-16T12:45:46.146Z,84.20
2018-04-16T12:48:13.611Z,83.50
2018-04-16T12:50:41.853Z,85.30
2018-04-16T12:53:09.339Z,85.10
2018-04-16T12:55:36.803Z,84.50
2018-04-16T12:58:05.051Z,86.00
2018-04-16T13:00:34.079Z,85.70
2018-04-16T13:03:02.324Z,85.80
2018-04-16T13:05:31.303Z,85.50
2018-04-16T13:07:58.767Z,85.50
2018-04-16T13:10:26.236Z,86.40
2018-04-16T13:12:53.707Z,86.40
2018-04-16T13:15:21.951Z,86.40
2018-04-16T13:17:49.519Z,86.30
2018-04-16T13:20:17.115Z,86.30
2018-04-16T13:22:44.592Z,85.80
2018-04-16T13:25:12.079Z,86.20
2018-04-16T13:27:39.571Z,86.30
2018-04-16T13:30:07.796Z,86.70
2018-04-16T13:32:35.267Z,86.60
2018-04-16T13:35:02.735Z,87.00
2018-04-16T13:37:31.712Z,85.60
2018-04-16T13:39:59.288Z,85.50
2018-04-16T13:42:26.761Z,87.20
2018-04-16T13:44:54.229Z,86.70
2018-04-16T13:47:22.483Z,88.00
2018-04-16T13:49:49.952Z,87.80
2018-04-16T13:52:18.198Z,88.60
2018-04-16T13:54:45.655Z,88.10
2018-04-16T13:57:13.127Z,87.70
2018-04-16T13:59:40.588Z,88.00
2018-04-16T14:02:08.135Z,88.90
2018-04-16T14:04:35.600Z,89.50
2018-04-16T14:07:04.579Z,90.10
2018-04-16T14:09:32.151Z,90.10
2018-04-16T14:11:59.640Z,89.60
2018-04-16T14:14:27.111Z,90.10
2018-04-16T14:16:54.588Z,90.30
2018-04-16T14:19:22.069Z,90.80
2018-04-16T14:21:49.636Z,91.30
2018-04-16T14:24:17.158Z,91.30
2018-04-16T14:26:45.360Z,91.80
2018-04-16T14:29:13.612Z,91.90
2018-04-16T14:31:41.103Z,91.90
2018-04-16T14:34:08.594Z,92.00
2018-04-16T14:36:36.060Z,92.10
2018-04-16T14:39:03.591Z,92.20
2018-04-16T14:41:31.952Z,92.60
2018-04-16T14:43:59.459Z,92.60
2018-04-16T14:46:27.070Z,92.60
2018-04-16T14:48:54.535Z,92.80
2018-04-16T14:51:22.775Z,93.10
2018-04-16T14:53:50.255Z,93.10
2018-04-16T14:56:17.815Z,93.20
2018-04-16T14:58:45.376Z,93.30
2018-04-16T15:01:12.851Z,93.90
2018-04-16T15:03:41.083Z,94.20
2018-04-16T15:06:08.556Z,94.10
2018-04-16T15:08:36.030Z,94.50
2018-04-16T15:11:04.280Z,94.80
2018-04-16T15:13:31.911Z,94.70
2018-04-16T15:15:59.396Z,94.80
2018-04-16T15:18:26.876Z,94.90
2018-04-16T15:20:54.339Z,94.80
2018-04-16T15:23:22.631Z,95.00
2018-04-16T15:25:50.176Z,94.90
2018-04-16T15:28:17.603Z,94.90
2018-04-16T15:30:45.076Z,95.00
2018-04-16T15:33:12.552Z,95.00
2018-04-16T15:35:41.807Z,95.00
2018-04-16T15:38:09.286Z,95.00
2018-04-16T15:40:36.765Z,95.10
2018-04-16T15:43:05.020Z,95.30
2018-04-16T15:45:32.490Z,95.30
2018-04-16T15:48:00.742Z,95.50
2018-04-16T15:50:28.224Z,95.50
2018-04-16T15:52:56.463Z,95.60
2018-04-16T15:55:24.031Z,95.50
2018-04-16T15:57:51.511Z,95.50
2018-04-16T16:00:19.760Z,95.60
2018-04-16T16:02:47.248Z,95.50
2018-04-16T16:05:15.499Z,95.60
2018-04-16T16:07:42.985Z,95.50
2018-04-16T16:10:11.232Z,95.70
2018-04-16T16:12:38.717Z,95.70
2018-04-16T16:15:07.085Z,96.10
2018-04-16T16:17:34.519Z,96.10
2018-04-16T16:20:02.086Z,95.90
2018-04-16T16:22:29.555Z,95.90
2018-04-16T16:24:57.799Z,95.90
2018-04-16T16:27:25.375Z,95.90
2018-04-16T16:29:52.860Z,96.00
2018-04-16T16:32:21.123Z,96.00
2018-04-16T16:34:49.359Z,95.80
2018-04-16T16:37:16.836Z,95.80
2018-04-16T16:39:44.335Z,95.80
2018-04-16T16:42:11.805Z,95.90
2018-04-16T16:44:39.292Z,95.90
2018-04-16T16:47:06.867Z,96.00
2018-04-16T16:49:34.427Z,96.10
2018-04-16T16:52:01.995Z,96.10
2018-04-16T16:54:29.475Z,95.90
2018-04-16T16:56:57.713Z,95.80
2018-04-16T16:59:25.212Z,96.10
2018-04-16T17:01:52.704Z,95.60
2018-04-16T17:04:20.245Z,95.70
2018-04-16T17:06:47.722Z,96.00
2018-04-16T17:09:15.188Z,96.00
2018-04-16T17:11:42.671Z,96.20
2018-04-16T17:14:10.911Z,95.90
2018-04-16T17:16:38.407Z,95.80
2018-04-16T17:19:06.639Z,95.90
2018-04-16T17:21:34.119Z,95.80
2018-04-16T17:24:01.690Z,95.80
2018-04-16T17:26:29.168Z,95.90
2018-04-16T17:28:57.418Z,96.10
2018-04-16T17:31:24.975Z,96.00
2018-04-16T17:33:52.452Z,96.20
2018-04-16T17:36:20.700Z,96.30
2018-04-16T17:38:48.159Z,96.30
2018-04-16T17:41:15.639Z,96.30
2018-04-16T17:43:43.887Z,96.60
2018-04-16T17:46:11.361Z,96.60
2018-04-16T17:48:39.603Z,96.80
2018-04-16T17:51:07.103Z,96.70
2018-04-16T17:53:35.331Z,96.90
2018-04-16T17:56:02.815Z,96.80
2018-04-16T17:58:30.295Z,97.00
2018-04-16T18:00:58.552Z,97.00
2018-04-16T18:03:26.103Z,97.00
2018-04-16T18:05:53.567Z,97.40
2018-04-16T18:08:21.043Z,97.00
2018-04-16T18:10:49.272Z,97.10
2018-04-16T18:13:16.753Z,97.00
2018-04-16T18:15:44.312Z,97.00
2018-04-16T18:18:11.875Z,97.00
2018-04-16T18:20:39.342Z,96.90
2018-04-16T18:23:06.815Z,96.90
2018-04-16T18:25:34.287Z,96.90
2018-04-16T18:28:01.772Z,97.10
2018-04-16T18:30:29.259Z,96.90
2018-04-16T18:32:56.823Z,97.10
2018-04-16T18:35:24.291Z,97.00
2018-04-16T18:37:52.536Z,96.80
2018-04-16T18:40:19.995Z,96.80
2018-04-16T18:42:47.488Z,96.90
2018-04-16T18:45:15.028Z,96.90
2018-04-16T18:47:42.493Z,96.90
2018-04-16T18:50:10.752Z,97.00
2018-04-16T18:52:38.311Z,97.00
2018-04-16T18:55:05.777Z,97.10
2018-04-16T18:57:33.252Z,97.20
2018-04-16T19:00:01.492Z,97.20
2018-04-16T19:02:28.983Z,97.20
2018-04-16T19:04:57.230Z,97.30
2018-04-16T19:07:24.734Z,97.20
2018-04-16T19:09:52.956Z,97.10
2018-04-16T19:12:20.527Z,97.10
2018-04-16T19:14:48.035Z,97.10
2018-04-16T19:17:15.517Z,97.10
2018-04-16T19:19:42.995Z,97.10
2018-04-16T19:22:11.245Z,97.20
2018-04-16T19:24:38.732Z,97.20
2018-04-16T19:27:11.941Z,97.10
2018-04-16T19:29:40.197Z,97.20
2018-04-16T19:32:07.670Z,97.20
2018-04-16T19:34:41.563Z,97.20
2018-04-16T19:37:09.141Z,97.20
2018-04-16T19:39:37.471Z,97.20
2018-04-16T19:42:10.612Z,97.20
2018-04-16T19:44:38.092Z,97.30
2018-04-16T19:47:05.565Z,97.40
2018-04-16T19:49:38.758Z,97.40
2018-04-16T19:52:06.259Z,97.40
2018-04-16T19:54:34.506Z,97.50
2018-04-16T19:57:07.609Z,97.40
2018-04-16T19:59:35.174Z,97.40
2018-04-16T20:02:08.316Z,97.50
2018-04-16T20:04:35.808Z,97.30
2018-04-16T20:07:04.057Z,96.80
2018-04-16T20:09:31.548Z,96.80
2018-04-16T20:11:59.019Z,96.80
2018-04-16T20:14:27.268Z,96.60
2018-04-16T20:16:54.748Z,96.60
2018-04-16T20:19:23.004Z,96.40
2018-04-16T20:21:50.488Z,96.30
2018-04-16T20:24:17.960Z,96.30
2018-04-16T20:26:45.432Z,96.10
2018-04-16T20:29:12.899Z,96.00
2018-04-16T20:31:40.381Z,96.00
2018-04-16T20:34:07.855Z,95.90
2018-04-16T20:36:35.414Z,96.20
2018-04-16T20:39:03.663Z,95.90
2018-04-16T20:41:31.186Z,95.80
2018-04-16T20:43:58.704Z,95.60
2018-04-16T20:46:26.211Z,95.30
2018-04-16T20:48:53.687Z,95.10
2018-04-16T20:51:21.170Z,95.00
2018-04-16T20:53:48.652Z,94.80
2018-04-16T20:56:16.899Z,94.90
2018-04-16T20:58:44.467Z,94.90
2018-04-16T21:01:12.028Z,94.90
2018-04-16T21:03:39.535Z,94.70
2018-04-16T21:06:07.040Z,94.50
2018-04-16T21:08:34.508Z,94.90
2018-04-16T21:11:02.754Z,94.90
2018-04-16T21:13:30.235Z,94.90
2018-04-16T21:15:57.700Z,94.80
2018-04-16T21:18:25.939Z,94.90
2018-04-16T21:20:53.399Z,94.80
2018-04-16T21:23:20.929Z,94.90
2018-04-16T21:25:48.435Z,94.90
2018-04-16T21:28:15.967Z,94.80
2018-04-16T21:30:43.419Z,94.60
2018-04-16T21:33:10.904Z,94.90
2018-04-16T21:35:38.371Z,94.40
2018-04-16T21:38:06.604Z,94.50
2018-04-16T21:40:34.095Z,94.30
2018-04-16T21:43:01.607Z,94.30
2018-04-16T21:45:29.117Z,94.40
2018-04-16T21:47:56.587Z,94.50
2018-04-16T21:50:24.828Z,94.50
2018-04-16T21:52:52.315Z,94.40
2018-04-16T21:55:20.555Z,94.70
2018-04-16T21:57:48.147Z,94.60
2018-04-16T22:00:16.375Z,94.60
2018-04-16T22:02:43.859Z,94.60
2018-04-16T22:05:11.356Z,94.60
2018-04-16T22:07:38.828Z,94.60
2018-04-16T22:10:06.356Z,94.60
2018-04-16T22:12:34.608Z,94.70
2018-04-16T22:15:02.092Z,94.70
2018-04-16T22:17:30.319Z,94.60
2018-04-16T22:19:57.806Z,94.60
2018-04-16T22:22:25.283Z,94.70
2018-04-16T22:24:53.535Z,94.80
2018-04-16T22:27:21.014Z,94.80
2018-04-16T22:29:49.259Z,94.80
2018-04-16T22:32:16.728Z,94.80
2018-04-16T22:34:44.207Z,94.80
2018-04-16T22:37:12.459Z,94.70
2018-04-16T22:39:39.936Z,94.70
2018-04-16T22:42:08.167Z,94.50
2018-04-16T22:44:35.715Z,94.50
2018-04-16T22:47:03.175Z,94.60
2018-04-16T22:49:30.710Z,94.60
2018-04-16T22:51:58.189Z,94.40
2018-04-16T22:54:25.685Z,94.50
2018-04-16T22:56:53.920Z,94.60
2018-04-16T22:59:21.404Z,94.40
2018-04-16T23:01:48.967Z,94.50
2018-04-16T23:04:16.456Z,94.80
2018-04-16T23:06:43.979Z,94.60
2018-04-16T23:09:11.539Z,94.50
2018-04-16T23:11:39.008Z,94.60
2018-04-16T23:14:07.379Z,94.60
2018-04-16T23:16:34.922Z,94.60
2018-04-16T23:19:02.472Z,94.70
2018-04-16T23:21:29.951Z,94.50
2018-04-16T23:23:57.496Z,94.50
2018-04-16T23:26:24.984Z,94.50
2018-04-16T23:28:53.218Z,94.60
2018-04-16T23:31:20.684Z,94.60
2018-04-16T23:33:48.243Z,94.50
2018-04-16T23:36:15.730Z,94.50
2018-04-16T23:38:43.955Z,94.30
2018-04-16T23:41:11.435Z,94.30
2018-04-16T23:43:38.911Z,94.30
2018-04-16T23:46:07.187Z,94.70
2018-04-16T23:48:35.488Z,94.40
2018-04-16T23:51:02.950Z,94.30
2018-04-16T23:53:30.459Z,94.20
2018-04-16T23:55:57.934Z,94.50
2018-04-16T23:58:26.161Z,94.40
